Aérodrome :
LOGIN :

S'inscrire | Disclaimer

   EN    FR    IT 

 










Légende :    VFR   VFR Marginal   IFR   IFR Intensif   IFR Très Intensif
Visi : 
Plafond : 
>= 8 km
>= 3000ft
5 à 8 km
1000 à 3000 ft
1500m à 5 km
500 à 1000 ft
800 à 1500m
200 à 500 ft
< 800m
< 200 ft
Symboles :   Orages  Brouillard  Fortes neiges  Fortes précipitations  Vent > 20 kt
SIGMETs :   Divers  Orages  Givrage  Turbulence  Onde Orograph.  Cendres Volcan.







- Altitude de l'aérodrome : 40 ft
- Code IATA : RMI


LIPR - Federico Fellini Int. Rimini

DERNIER METAR :
  • 160615Z 25005KT 9999 FEW025 23/21 Q1013

METARs EXPIRÉS :
  • 160545Z 28006KT 9999 BKN015 22/20 Q1013
  • 160515Z 28007KT 9999 SCT015 SCT060 22/20 Q1013
  • 160445Z 31005KT CAVOK 20/19 Q1013
  • 160415Z 19004KT CAVOK 20/19 Q1012
  • 160345Z 20006KT CAVOK 20/19 Q1012

TAF TAF LIPR
Valide du 16 à 06h jusqu'au 16 à 15h UTC


160500Z 1606/1615 VRB05KT 9999 FEW030
Pas de NOTAMs connus pour ce terrain.
2 SIGMETs publiés pour la FIR Milano (LIMM) :
 
Turbulence forte
LIMM SIGMET 2 VALID 160500/160700 LIIP
LIMM MILANO FIR SEV TURB FCST W OF LINE N4648 E01238 - N4517 E01313 ABV FL260 MOV E NC=
Orages noyés dans la masse
LIMM SIGMET 1 VALID 160400/160700 LIIP
LIMM MILANO FIR EMBD TS OBS WI N4621 E01047 - N4625 E01339 - N4536 E01404 - N4509 E01252 - N4330 E01439 - N4343 E01158 - N4605 E01004 - N4621 E01047 ABV FL380 MOV E WKN=



MET'MAP, la Météo Aéronautique d'un coup d'oeil ! - Copyright ORBIFLY Décembre 2007 - Disclaimer

ORBIFLY MET'MAP TEAM :

Programmation & Développement : Alexandra Zaïnal
Conception & Développement : Baudouin d'Aumeries
Co-Programmation & Développement : Marc-Olivier Méhu
Soutien technique & logistique : Manuel Goepfert

Contact : metmap@orbifly.com




SOURCES & CREDITS :

   NOAA